createdAt,value
2018-02-06T09:08:18.980Z,986.72
2018-02-06T09:09:04.854Z,986.71
2018-02-06T09:10:05.146Z,986.66
2018-02-06T11:34:49.514Z,985.26
2018-02-06T11:35:58.220Z,985.23
2018-02-06T11:36:58.523Z,985.27
2018-02-06T11:38:51.729Z,985.24
2018-02-06T11:39:52.040Z,985.25
2018-02-06T11:41:45.238Z,985.23
2018-02-06T11:42:45.628Z,985.18
2018-02-06T11:44:38.759Z,985.20
2018-02-06T11:45:39.041Z,985.21
2018-02-06T11:47:32.637Z,985.26
2018-02-06T11:48:32.867Z,985.25
2018-02-06T11:50:26.347Z,985.24
2018-02-06T11:51:26.674Z,985.21
2018-02-06T11:53:20.127Z,985.24
2018-02-06T11:54:20.449Z,985.20
2018-02-06T11:56:13.623Z,985.18
2018-02-06T11:57:13.951Z,985.16
2018-02-06T11:59:07.501Z,985.17
2018-02-06T12:01:21.064Z,985.10
2018-02-06T12:02:21.311Z,985.13
2018-02-06T12:04:15.055Z,985.13
2018-02-06T12:05:15.369Z,985.06
2018-02-06T12:07:08.559Z,985.02
2018-02-06T12:08:08.873Z,985.05
2018-02-06T12:10:02.159Z,984.98
2018-02-06T12:16:57.327Z,984.90
2018-02-06T12:17:57.669Z,984.89
2018-02-06T12:19:50.846Z,984.87
2018-02-06T12:20:51.165Z,984.85
2018-02-06T12:22:45.729Z,984.86
2018-02-06T12:23:45.016Z,984.86
2018-02-06T12:25:38.140Z,984.84
2018-02-06T12:26:38.445Z,984.85
2018-02-06T12:28:32.183Z,984.81
2018-02-06T12:29:32.487Z,984.81
2018-02-06T12:31:25.671Z,984.82
2018-02-06T12:32:26.066Z,984.85
2018-02-06T12:34:19.738Z,984.82
2018-02-06T12:35:20.066Z,984.80
2018-02-06T12:37:14.050Z,984.78
2018-02-06T12:40:08.115Z,984.69
2018-02-06T12:41:08.435Z,984.65
2018-02-06T12:43:01.625Z,984.53
2018-02-06T12:44:01.950Z,984.52
2018-02-06T12:45:55.613Z,984.39
2018-02-06T12:46:55.930Z,984.42
2018-02-06T12:48:49.914Z,984.46
2018-02-06T12:49:50.243Z,984.40
2018-02-06T12:51:43.454Z,984.39
2018-02-06T12:52:43.797Z,984.41
2018-02-06T12:54:37.738Z,984.49
2018-02-06T12:55:38.062Z,984.46
2018-02-06T12:57:31.578Z,984.47
2018-02-06T12:58:31.894Z,984.49
2018-02-06T13:00:25.067Z,984.53
2018-02-06T13:01:25.401Z,984.54
2018-02-06T13:03:18.590Z,984.54
2018-02-06T13:04:18.911Z,984.52
2018-02-06T13:06:12.120Z,984.46
2018-02-06T13:07:12.432Z,984.49
2018-02-06T13:09:06.116Z,984.43
2018-02-06T13:10:06.430Z,984.44
2018-02-06T13:11:59.685Z,984.43
2018-02-06T13:12:59.958Z,984.41
2018-02-06T13:14:53.162Z,984.40
2018-02-06T13:15:53.470Z,984.37
2018-02-06T13:17:46.673Z,984.34
2018-02-06T13:18:47.036Z,984.36
2018-02-06T13:20:40.824Z,984.31
2018-02-06T13:21:41.120Z,984.32
2018-02-06T13:23:35.380Z,984.29
2018-02-06T13:24:34.852Z,984.26
2018-02-06T13:26:28.625Z,984.26
2018-02-06T13:27:28.953Z,984.28
2018-02-06T13:29:22.412Z,984.21
2018-02-06T13:30:22.744Z,984.24
2018-02-06T13:32:15.936Z,984.17
2018-02-06T13:33:16.271Z,984.16
2018-02-06T13:35:09.534Z,984.13
2018-02-06T13:36:09.849Z,984.07
2018-02-06T13:38:03.554Z,984.05
2018-02-06T13:40:57.079Z,984.02
2018-02-06T13:41:57.388Z,983.99
2018-02-06T13:43:50.599Z,983.98
2018-02-06T13:44:50.910Z,983.99
2018-02-06T13:46:44.507Z,983.93
2018-02-06T13:47:44.868Z,983.95
2018-02-06T13:49:38.043Z,983.95
2018-02-06T13:50:38.357Z,983.91
2018-02-06T13:52:32.053Z,983.84
2018-02-06T13:53:32.381Z,983.72
2018-02-06T13:55:25.585Z,983.62
2018-02-06T13:56:25.903Z,983.52
2018-02-06T13:58:19.624Z,983.46
2018-02-06T14:01:13.183Z,983.40
2018-02-06T14:02:13.496Z,983.40
2018-02-06T14:04:07.260Z,983.32
2018-02-06T14:05:07.477Z,983.32
2018-02-06T14:07:00.680Z,983.27
2018-02-06T14:08:00.996Z,983.31
2018-02-06T14:09:54.208Z,983.30
2018-02-06T14:10:54.509Z,983.21
2018-02-06T14:12:48.520Z,983.17
2018-02-06T14:13:48.842Z,983.27
2018-02-06T14:15:42.040Z,983.35
2018-02-06T14:16:42.364Z,983.36
2018-02-06T14:18:35.892Z,983.36
2018-02-06T14:19:36.178Z,983.37
2018-02-06T15:54:05.962Z,983.00
2018-02-06T15:55:06.329Z,983.01
2018-02-06T15:56:59.896Z,983.02
2018-02-06T15:58:00.256Z,983.03
2018-02-06T15:59:53.607Z,983.01
2018-02-06T16:00:53.966Z,983.08
2018-02-06T16:03:47.592Z,983.01
2018-02-06T16:05:40.852Z,982.98
2018-02-06T16:06:41.257Z,983.02
2018-02-06T16:08:34.582Z,983.02
2018-02-06T16:09:34.952Z,983.00
2018-02-06T16:11:28.233Z,983.02
2018-02-06T16:12:28.560Z,982.90
2018-02-06T16:14:21.935Z,982.89
2018-02-06T16:15:22.249Z,982.88
2018-02-06T16:17:16.258Z,982.92
2018-02-06T16:18:16.622Z,982.92
2018-02-06T16:20:09.928Z,982.98
2018-02-06T16:21:10.248Z,983.01
2018-02-06T16:23:03.491Z,983.00
2018-02-06T16:24:03.852Z,983.00
2018-02-06T16:25:57.638Z,983.01
2018-02-06T16:26:58.008Z,983.05
2018-02-06T16:28:52.038Z,983.07
2018-02-06T16:29:52.402Z,983.07
2018-02-06T16:31:46.191Z,983.06
2018-02-06T16:32:46.540Z,983.01
2018-02-06T16:34:39.845Z,983.02
2018-02-06T16:35:40.210Z,983.04
2018-02-06T16:37:33.486Z,983.07
2018-02-06T16:38:33.846Z,983.08
2018-02-06T16:40:27.070Z,983.08
2018-02-06T16:41:27.428Z,983.11
2018-02-06T16:43:21.204Z,983.15
2018-02-06T16:46:14.819Z,983.19
2018-02-06T16:47:15.181Z,983.14
2018-02-06T16:49:08.975Z,983.13
2018-02-06T16:52:03.040Z,983.16
2018-02-06T16:53:03.400Z,983.17
2018-02-06T16:54:56.699Z,983.15
2018-02-06T16:55:57.071Z,983.13
2018-02-06T17:01:46.366Z,983.24
2018-02-06T17:03:40.396Z,983.20
2018-02-06T17:06:34.353Z,983.22
2018-02-06T17:07:34.696Z,983.20
2018-02-06T17:09:27.937Z,983.18
2018-02-06T17:10:28.299Z,983.20
2018-02-06T17:13:22.490Z,983.19
2018-02-06T17:15:15.737Z,983.22
2018-02-06T17:16:16.095Z,983.23
2018-02-06T17:18:09.656Z,983.22
2018-02-06T17:19:10.022Z,983.22
2018-02-06T17:21:03.766Z,983.20
2018-02-06T17:22:04.143Z,983.21
2018-02-06T17:23:57.710Z,983.24
2018-02-06T17:24:58.061Z,983.28
2018-02-06T17:26:51.798Z,983.27
2018-02-06T17:27:52.160Z,983.25
2018-02-06T17:29:45.942Z,983.27
2018-02-06T17:30:46.307Z,983.26
2018-02-06T17:32:39.827Z,983.27
2018-02-06T17:33:40.188Z,983.27
2018-02-06T17:35:33.958Z,983.28
2018-02-06T17:36:34.325Z,983.25
2018-02-06T17:38:28.049Z,983.26
2018-02-06T17:39:28.425Z,983.29
2018-02-06T17:41:21.870Z,983.29
2018-02-06T17:42:21.889Z,983.26
2018-02-06T17:44:15.118Z,983.31
2018-02-06T17:45:15.476Z,983.33
2018-02-06T17:47:09.056Z,983.32
2018-02-06T17:48:09.414Z,983.34
2018-02-06T17:50:02.671Z,983.34
2018-02-06T17:51:03.032Z,983.33
2018-02-06T17:52:56.856Z,983.32
2018-02-06T17:55:50.983Z,983.35
2018-02-06T17:56:51.346Z,983.34
2018-02-06T17:58:44.640Z,983.36
2018-02-06T17:59:45.008Z,983.39
2018-02-06T18:01:38.549Z,983.37
2018-02-06T18:02:38.916Z,983.35
2018-02-06T18:04:32.196Z,983.33
2018-02-06T18:05:32.561Z,983.28
2018-02-06T18:07:25.803Z,983.29
2018-02-06T18:08:26.168Z,983.27
2018-02-06T18:10:20.077Z,983.22
2018-02-06T18:11:20.289Z,983.22
2018-02-06T18:13:13.533Z,983.20
2018-02-06T18:14:13.886Z,983.21
2018-02-06T18:16:07.190Z,983.19
2018-02-06T18:17:07.520Z,983.20
2018-02-06T18:19:00.756Z,983.25
2018-02-06T18:20:01.127Z,983.24
2018-02-06T18:21:54.391Z,983.26
2018-02-06T18:22:54.750Z,983.29
2018-02-06T18:24:47.988Z,983.34
2018-02-06T18:25:48.361Z,983.34
2018-02-06T18:28:42.506Z,983.31
2018-02-06T18:30:35.755Z,983.30
2018-02-06T18:31:36.098Z,983.28
2018-02-06T18:33:29.460Z,983.29
2018-02-06T18:34:29.589Z,983.32
2018-02-06T18:36:23.404Z,983.26
2018-02-06T18:37:23.545Z,983.28
2018-02-06T18:39:16.817Z,983.25
2018-02-06T18:40:17.182Z,983.24
2018-02-06T18:42:10.934Z,983.29
2018-02-06T18:45:04.602Z,983.32
2018-02-06T18:46:04.953Z,983.34
2018-02-06T18:47:58.686Z,983.35
2018-02-06T18:48:59.036Z,983.31
2018-02-06T18:50:52.607Z,983.30
2018-02-06T18:51:52.963Z,983.33
2018-02-06T18:53:46.214Z,983.29
2018-02-06T18:54:46.576Z,983.30
2018-02-06T18:56:39.859Z,983.26
2018-02-06T18:57:40.228Z,983.28
2018-02-06T18:59:33.449Z,983.28
2018-02-06T19:00:33.802Z,983.31
2018-02-06T19:02:27.883Z,983.33
2018-02-06T19:03:28.241Z,983.32
2018-02-06T19:05:21.775Z,983.28
2018-02-06T19:06:22.136Z,983.27
2018-02-06T19:08:15.909Z,983.25
2018-02-06T19:09:16.445Z,983.21
2018-02-06T19:11:09.499Z,983.19
2018-02-06T19:12:09.850Z,983.18
2018-02-06T19:14:03.133Z,983.22
2018-02-06T19:15:03.496Z,983.21
2018-02-06T19:16:57.516Z,983.24
2018-02-06T19:17:57.883Z,983.23
2018-02-06T19:19:51.148Z,983.20
2018-02-06T19:20:51.510Z,983.22
2018-02-06T19:22:45.311Z,983.14
2018-02-06T19:25:38.980Z,983.16
2018-02-06T19:26:39.329Z,983.20
2018-02-06T19:28:32.604Z,983.18
2018-02-06T19:29:32.968Z,983.14
2018-02-06T19:31:26.283Z,983.13
2018-02-06T19:32:26.642Z,983.15
2018-02-06T19:34:19.874Z,983.16
2018-02-06T19:35:20.238Z,983.20
2018-02-06T19:37:13.513Z,983.21
2018-02-06T19:38:13.889Z,983.25
2018-02-06T19:40:07.425Z,983.21
2018-02-06T19:41:07.775Z,983.24
2018-02-06T19:43:01.867Z,983.23
